sensor_id;sensor_type;location;lat;lon;timestamp;P1;durP1;ratioP1;P2;durP2;ratioP2
75858;SDS011;64504;51.308;8.620;2023-03-31T00:00:43;2.95;;;1.98;;
75858;SDS011;64504;51.308;8.620;2023-03-31T00:03:08;7.50;;;2.03;;
75858;SDS011;64504;51.308;8.620;2023-03-31T00:05:46;12.45;;;2.65;;
75858;SDS011;64504;51.308;8.620;2023-03-31T00:08:12;12.45;;;2.05;;
75858;SDS011;64504;51.308;8.620;2023-03-31T00:10:44;5.97;;;1.75;;
75858;SDS011;64504;51.308;8.620;2023-03-31T00:13:11;10.15;;;3.22;;
75858;SDS011;64504;51.308;8.620;2023-03-31T00:15:37;4.40;;;2.13;;
75858;SDS011;64504;51.308;8.620;2023-03-31T00:18:03;4.43;;;2.00;;
75858;SDS011;64504;51.308;8.620;2023-03-31T00:20:29;6.95;;;2.47;;
75858;SDS011;64504;51.308;8.620;2023-03-31T00:22:57;3.00;;;2.28;;
75858;SDS011;64504;51.308;8.620;2023-03-31T00:25:26;2.40;;;1.58;;
75858;SDS011;64504;51.308;8.620;2023-03-31T00:27:52;2.67;;;2.38;;
75858;SDS011;64504;51.308;8.620;2023-03-31T00:30:18;4.88;;;1.52;;
75858;SDS011;64504;51.308;8.620;2023-03-31T00:32:44;10.32;;;2.55;;
75858;SDS011;64504;51.308;8.620;2023-03-31T00:35:10;8.82;;;2.55;;
75858;SDS011;64504;51.308;8.620;2023-03-31T00:37:36;5.30;;;3.20;;
75858;SDS011;64504;51.308;8.620;2023-03-31T00:40:02;5.43;;;2.63;;
75858;SDS011;64504;51.308;8.620;2023-03-31T00:42:33;1.63;;;1.52;;
75858;SDS011;64504;51.308;8.620;2023-03-31T00:47:39;7.38;;;2.58;;
75858;SDS011;64504;51.308;8.620;2023-03-31T00:50:19;2.38;;;2.17;;
75858;SDS011;64504;51.308;8.620;2023-03-31T00:53:16;10.25;;;2.45;;
75858;SDS011;64504;51.308;8.620;2023-03-31T00:55:52;5.10;;;2.25;;
75858;SDS011;64504;51.308;8.620;2023-03-31T00:58:19;3.35;;;1.98;;
75858;SDS011;64504;51.308;8.620;2023-03-31T01:00:46;9.23;;;3.15;;
75858;SDS011;64504;51.308;8.620;2023-03-31T01:03:12;4.88;;;2.65;;
75858;SDS011;64504;51.308;8.620;2023-03-31T01:05:54;4.70;;;2.50;;
75858;SDS011;64504;51.308;8.620;2023-03-31T01:10:53;8.80;;;2.45;;
75858;SDS011;64504;51.308;8.620;2023-03-31T01:13:20;6.78;;;3.60;;
75858;SDS011;64504;51.308;8.620;2023-03-31T01:15:46;1.38;;;1.27;;
75858;SDS011;64504;51.308;8.620;2023-03-31T01:18:12;4.80;;;2.97;;
75858;SDS011;64504;51.308;8.620;2023-03-31T01:29:06;2.28;;;1.92;;
75858;SDS011;64504;51.308;8.620;2023-03-31T01:42:32;2.83;;;2.40;;
75858;SDS011;64504;51.308;8.620;2023-03-31T01:47:44;4.55;;;2.30;;
75858;SDS011;64504;51.308;8.620;2023-03-31T01:53:01;3.83;;;2.03;;
75858;SDS011;64504;51.308;8.620;2023-03-31T01:55:41;4.15;;;2.33;;
75858;SDS011;64504;51.308;8.620;2023-03-31T01:58:19;3.05;;;1.52;;
75858;SDS011;64504;51.308;8.620;2023-03-31T02:00:53;4.78;;;1.63;;
75858;SDS011;64504;51.308;8.620;2023-03-31T02:03:30;6.10;;;2.55;;
75858;SDS011;64504;51.308;8.620;2023-03-31T02:05:59;5.85;;;1.75;;
75858;SDS011;64504;51.308;8.620;2023-03-31T02:08:53;1.52;;;1.35;;
75858;SDS011;64504;51.308;8.620;2023-03-31T02:11:28;0.68;;;0.68;;
75858;SDS011;64504;51.308;8.620;2023-03-31T02:13:54;4.85;;;1.23;;
75858;SDS011;64504;51.308;8.620;2023-03-31T02:16:21;1.50;;;1.10;;
75858;SDS011;64504;51.308;8.620;2023-03-31T02:18:50;4.30;;;1.33;;
75858;SDS011;64504;51.308;8.620;2023-03-31T02:21:18;2.30;;;1.55;;
75858;SDS011;64504;51.308;8.620;2023-03-31T02:23:44;1.25;;;1.15;;
75858;SDS011;64504;51.308;8.620;2023-03-31T02:26:13;4.68;;;1.25;;
75858;SDS011;64504;51.308;8.620;2023-03-31T02:28:40;0.60;;;0.60;;
75858;SDS011;64504;51.308;8.620;2023-03-31T02:33:49;2.70;;;0.98;;
75858;SDS011;64504;51.308;8.620;2023-03-31T02:36:16;3.05;;;1.20;;
75858;SDS011;64504;51.308;8.620;2023-03-31T02:38:43;0.93;;;0.90;;
75858;SDS011;64504;51.308;8.620;2023-03-31T02:41:12;1.23;;;1.10;;
75858;SDS011;64504;51.308;8.620;2023-03-31T02:43:37;4.40;;;1.60;;
75858;SDS011;64504;51.308;8.620;2023-03-31T02:46:02;1.75;;;1.30;;
75858;SDS011;64504;51.308;8.620;2023-03-31T02:48:29;3.70;;;1.58;;
75858;SDS011;64504;51.308;8.620;2023-03-31T02:53:44;6.32;;;1.83;;
75858;SDS011;64504;51.308;8.620;2023-03-31T03:01:42;4.85;;;1.80;;
75858;SDS011;64504;51.308;8.620;2023-03-31T03:04:35;6.32;;;1.48;;
75858;SDS011;64504;51.308;8.620;2023-03-31T03:09:59;5.88;;;2.08;;
75858;SDS011;64504;51.308;8.620;2023-03-31T03:15:29;4.03;;;2.80;;
75858;SDS011;64504;51.308;8.620;2023-03-31T03:18:02;13.07;;;3.13;;
75858;SDS011;64504;51.308;8.620;2023-03-31T03:20:30;6.35;;;3.38;;
75858;SDS011;64504;51.308;8.620;2023-03-31T03:23:00;4.50;;;3.20;;
75858;SDS011;64504;51.308;8.620;2023-03-31T03:25:27;6.68;;;2.75;;
75858;SDS011;64504;51.308;8.620;2023-03-31T03:27:54;8.57;;;3.00;;
75858;SDS011;64504;51.308;8.620;2023-03-31T03:30:20;9.85;;;2.55;;
75858;SDS011;64504;51.308;8.620;2023-03-31T03:32:45;3.80;;;1.63;;
75858;SDS011;64504;51.308;8.620;2023-03-31T03:35:11;15.35;;;3.03;;
75858;SDS011;64504;51.308;8.620;2023-03-31T03:37:36;7.32;;;2.28;;
75858;SDS011;64504;51.308;8.620;2023-03-31T03:40:02;14.43;;;2.90;;
75858;SDS011;64504;51.308;8.620;2023-03-31T03:42:30;7.50;;;2.80;;
75858;SDS011;64504;51.308;8.620;2023-03-31T03:44:56;12.80;;;3.42;;
75858;SDS011;64504;51.308;8.620;2023-03-31T03:47:21;4.13;;;2.10;;
75858;SDS011;64504;51.308;8.620;2023-03-31T03:49:46;3.80;;;2.95;;
75858;SDS011;64504;51.308;8.620;2023-03-31T03:52:13;3.63;;;1.80;;
75858;SDS011;64504;51.308;8.620;2023-03-31T03:54:39;6.03;;;2.55;;
75858;SDS011;64504;51.308;8.620;2023-03-31T03:57:04;7.43;;;2.58;;
75858;SDS011;64504;51.308;8.620;2023-03-31T03:59:32;8.90;;;2.28;;
75858;SDS011;64504;51.308;8.620;2023-03-31T04:01:57;8.60;;;2.85;;
75858;SDS011;64504;51.308;8.620;2023-03-31T04:04:23;5.78;;;1.83;;
75858;SDS011;64504;51.308;8.620;2023-03-31T04:06:48;12.20;;;2.53;;
75858;SDS011;64504;51.308;8.620;2023-03-31T04:09:15;1.75;;;1.65;;
75858;SDS011;64504;51.308;8.620;2023-03-31T04:11:41;1.05;;;1.02;;
75858;SDS011;64504;51.308;8.620;2023-03-31T04:14:06;7.45;;;1.90;;
75858;SDS011;64504;51.308;8.620;2023-03-31T04:16:32;4.93;;;1.63;;
75858;SDS011;64504;51.308;8.620;2023-03-31T04:19:01;11.75;;;3.13;;
75858;SDS011;64504;51.308;8.620;2023-03-31T04:21:29;2.97;;;1.63;;
75858;SDS011;64504;51.308;8.620;2023-03-31T04:23:58;6.57;;;2.70;;
75858;SDS011;64504;51.308;8.620;2023-03-31T04:26:29;3.38;;;1.55;;
75858;SDS011;64504;51.308;8.620;2023-03-31T04:29:13;4.00;;;2.38;;
75858;SDS011;64504;51.308;8.620;2023-03-31T04:34:45;3.75;;;1.90;;
75858;SDS011;64504;51.308;8.620;2023-03-31T04:37:19;4.95;;;1.58;;
75858;SDS011;64504;51.308;8.620;2023-03-31T04:42:20;4.07;;;1.58;;
75858;SDS011;64504;51.308;8.620;2023-03-31T04:44:47;1.67;;;1.00;;
75858;SDS011;64504;51.308;8.620;2023-03-31T04:47:12;3.67;;;1.35;;
75858;SDS011;64504;51.308;8.620;2023-03-31T04:49:39;3.60;;;1.73;;
75858;SDS011;64504;51.308;8.620;2023-03-31T04:52:04;3.83;;;1.75;;
75858;SDS011;64504;51.308;8.620;2023-03-31T04:54:30;0.82;;;0.82;;
75858;SDS011;64504;51.308;8.620;2023-03-31T04:56:55;1.80;;;1.60;;
75858;SDS011;64504;51.308;8.620;2023-03-31T04:59:20;2.65;;;1.85;;
75858;SDS011;64504;51.308;8.620;2023-03-31T05:01:46;3.22;;;1.95;;
75858;SDS011;64504;51.308;8.620;2023-03-31T05:04:12;5.97;;;1.75;;
75858;SDS011;64504;51.308;8.620;2023-03-31T05:06:38;2.42;;;1.40;;
75858;SDS011;64504;51.308;8.620;2023-03-31T05:09:04;6.18;;;1.42;;
75858;SDS011;64504;51.308;8.620;2023-03-31T05:11:30;4.88;;;2.00;;
75858;SDS011;64504;51.308;8.620;2023-03-31T05:13:55;6.93;;;1.88;;
75858;SDS011;64504;51.308;8.620;2023-03-31T05:16:22;7.18;;;2.13;;
75858;SDS011;64504;51.308;8.620;2023-03-31T05:18:47;1.67;;;1.58;;
75858;SDS011;64504;51.308;8.620;2023-03-31T05:21:14;8.07;;;1.95;;
75858;SDS011;64504;51.308;8.620;2023-03-31T05:23:41;5.45;;;2.00;;
75858;SDS011;64504;51.308;8.620;2023-03-31T05:26:07;2.90;;;1.52;;
75858;SDS011;64504;51.308;8.620;2023-03-31T05:28:33;4.22;;;1.48;;
75858;SDS011;64504;51.308;8.620;2023-03-31T05:31:01;1.75;;;1.52;;
75858;SDS011;64504;51.308;8.620;2023-03-31T05:33:27;2.35;;;1.50;;
75858;SDS011;64504;51.308;8.620;2023-03-31T05:35:53;3.80;;;2.20;;
75858;SDS011;64504;51.308;8.620;2023-03-31T05:38:19;2.75;;;1.60;;
75858;SDS011;64504;51.308;8.620;2023-03-31T05:40:47;2.38;;;1.75;;
75858;SDS011;64504;51.308;8.620;2023-03-31T05:43:13;3.55;;;1.50;;
75858;SDS011;64504;51.308;8.620;2023-03-31T05:45:38;5.82;;;1.70;;
75858;SDS011;64504;51.308;8.620;2023-03-31T05:48:05;1.92;;;1.35;;
75858;SDS011;64504;51.308;8.620;2023-03-31T05:50:31;2.13;;;1.23;;
75858;SDS011;64504;51.308;8.620;2023-03-31T05:52:56;1.95;;;1.83;;
75858;SDS011;64504;51.308;8.620;2023-03-31T05:55:23;1.40;;;0.93;;
75858;SDS011;64504;51.308;8.620;2023-03-31T05:57:48;4.18;;;1.02;;
75858;SDS011;64504;51.308;8.620;2023-03-31T06:00:14;1.55;;;1.00;;
75858;SDS011;64504;51.308;8.620;2023-03-31T06:02:39;2.42;;;1.40;;
75858;SDS011;64504;51.308;8.620;2023-03-31T06:05:06;0.93;;;0.90;;
75858;SDS011;64504;51.308;8.620;2023-03-31T06:07:31;0.90;;;0.70;;
75858;SDS011;64504;51.308;8.620;2023-03-31T06:09:56;1.75;;;1.30;;
75858;SDS011;64504;51.308;8.620;2023-03-31T06:12:22;3.15;;;1.25;;
75858;SDS011;64504;51.308;8.620;2023-03-31T06:14:48;3.97;;;1.52;;
75858;SDS011;64504;51.308;8.620;2023-03-31T06:17:13;4.18;;;1.40;;
75858;SDS011;64504;51.308;8.620;2023-03-31T06:19:38;1.42;;;1.33;;
75858;SDS011;64504;51.308;8.620;2023-03-31T06:22:04;1.75;;;1.33;;
75858;SDS011;64504;51.308;8.620;2023-03-31T06:24:29;1.23;;;0.95;;
75858;SDS011;64504;51.308;8.620;2023-03-31T06:26:55;0.77;;;0.77;;
75858;SDS011;64504;51.308;8.620;2023-03-31T06:29:20;0.50;;;0.50;;
75858;SDS011;64504;51.308;8.620;2023-03-31T06:31:46;0.95;;;0.88;;
75858;SDS011;64504;51.308;8.620;2023-03-31T06:34:11;2.33;;;0.80;;
75858;SDS011;64504;51.308;8.620;2023-03-31T06:36:37;0.82;;;0.82;;
75858;SDS011;64504;51.308;8.620;2023-03-31T06:39:02;2.17;;;1.27;;
75858;SDS011;64504;51.308;8.620;2023-03-31T06:41:28;3.03;;;1.27;;
75858;SDS011;64504;51.308;8.620;2023-03-31T06:43:53;1.20;;;0.68;;
75858;SDS011;64504;51.308;8.620;2023-03-31T06:46:19;0.43;;;0.43;;
75858;SDS011;64504;51.308;8.620;2023-03-31T06:48:44;1.98;;;0.85;;
75858;SDS011;64504;51.308;8.620;2023-03-31T06:51:10;1.13;;;1.02;;
75858;SDS011;64504;51.308;8.620;2023-03-31T06:53:36;1.45;;;1.13;;
75858;SDS011;64504;51.308;8.620;2023-03-31T06:56:03;0.88;;;0.88;;
75858;SDS011;64504;51.308;8.620;2023-03-31T06:58:30;2.00;;;1.13;;
75858;SDS011;64504;51.308;8.620;2023-03-31T07:00:56;1.60;;;0.77;;
75858;SDS011;64504;51.308;8.620;2023-03-31T07:03:21;8.40;;;0.93;;
75858;SDS011;64504;51.308;8.620;2023-03-31T07:05:49;2.25;;;0.88;;
75858;SDS011;64504;51.308;8.620;2023-03-31T07:08:18;1.23;;;1.10;;
75858;SDS011;64504;51.308;8.620;2023-03-31T07:10:44;1.70;;;1.05;;
75858;SDS011;64504;51.308;8.620;2023-03-31T07:13:13;3.65;;;0.85;;
75858;SDS011;64504;51.308;8.620;2023-03-31T07:15:40;2.10;;;0.93;;
75858;SDS011;64504;51.308;8.620;2023-03-31T07:18:05;1.65;;;0.95;;
75858;SDS011;64504;51.308;8.620;2023-03-31T07:20:31;1.20;;;0.98;;
75858;SDS011;64504;51.308;8.620;2023-03-31T07:22:57;0.80;;;0.60;;
75858;SDS011;64504;51.308;8.620;2023-03-31T07:25:23;1.23;;;1.00;;
75858;SDS011;64504;51.308;8.620;2023-03-31T07:27:48;0.45;;;0.45;;
75858;SDS011;64504;51.308;8.620;2023-03-31T07:30:15;4.65;;;1.45;;
75858;SDS011;64504;51.308;8.620;2023-03-31T07:32:42;5.20;;;1.05;;
75858;SDS011;64504;51.308;8.620;2023-03-31T07:35:08;0.28;;;0.28;;
75858;SDS011;64504;51.308;8.620;2023-03-31T07:37:36;0.65;;;0.65;;
75858;SDS011;64504;51.308;8.620;2023-03-31T07:40:02;0.60;;;0.60;;
75858;SDS011;64504;51.308;8.620;2023-03-31T07:42:29;1.38;;;0.40;;
75858;SDS011;64504;51.308;8.620;2023-03-31T07:44:55;2.05;;;1.13;;
75858;SDS011;64504;51.308;8.620;2023-03-31T07:47:22;0.77;;;0.63;;
75858;SDS011;64504;51.308;8.620;2023-03-31T07:49:50;0.32;;;0.32;;
75858;SDS011;64504;51.308;8.620;2023-03-31T07:52:15;0.43;;;0.28;;
75858;SDS011;64504;51.308;8.620;2023-03-31T07:54:42;0.60;;;0.60;;
75858;SDS011;64504;51.308;8.620;2023-03-31T07:57:09;0.80;;;0.80;;
75858;SDS011;64504;51.308;8.620;2023-03-31T07:59:34;5.30;;;0.90;;
75858;SDS011;64504;51.308;8.620;2023-03-31T08:02:00;0.65;;;0.65;;
75858;SDS011;64504;51.308;8.620;2023-03-31T08:04:25;0.40;;;0.40;;
75858;SDS011;64504;51.308;8.620;2023-03-31T08:06:53;0.25;;;0.25;;
75858;SDS011;64504;51.308;8.620;2023-03-31T08:09:18;1.00;;;0.80;;
75858;SDS011;64504;51.308;8.620;2023-03-31T08:11:45;1.15;;;0.88;;
75858;SDS011;64504;51.308;8.620;2023-03-31T08:14:10;1.08;;;0.65;;
75858;SDS011;64504;51.308;8.620;2023-03-31T08:16:36;0.60;;;0.50;;
75858;SDS011;64504;51.308;8.620;2023-03-31T08:19:01;3.55;;;2.08;;
75858;SDS011;64504;51.308;8.620;2023-03-31T08:21:27;1.83;;;1.02;;
75858;SDS011;64504;51.308;8.620;2023-03-31T08:23:54;0.65;;;0.50;;
75858;SDS011;64504;51.308;8.620;2023-03-31T08:26:20;0.50;;;0.50;;
75858;SDS011;64504;51.308;8.620;2023-03-31T08:28:48;0.82;;;0.63;;
75858;SDS011;64504;51.308;8.620;2023-03-31T08:31:14;1.30;;;0.90;;
75858;SDS011;64504;51.308;8.620;2023-03-31T08:33:43;0.43;;;0.43;;
75858;SDS011;64504;51.308;8.620;2023-03-31T08:36:10;0.73;;;0.47;;
75858;SDS011;64504;51.308;8.620;2023-03-31T08:38:37;0.90;;;0.55;;
75858;SDS011;64504;51.308;8.620;2023-03-31T08:41:20;0.43;;;0.43;;
75858;SDS011;64504;51.308;8.620;2023-03-31T08:43:52;2.22;;;1.25;;
75858;SDS011;64504;51.308;8.620;2023-03-31T08:46:18;0.70;;;0.70;;
75858;SDS011;64504;51.308;8.620;2023-03-31T08:48:54;0.93;;;0.85;;
75858;SDS011;64504;51.308;8.620;2023-03-31T08:51:30;0.55;;;0.47;;
75858;SDS011;64504;51.308;8.620;2023-03-31T08:56:27;1.52;;;0.90;;
75858;SDS011;64504;51.308;8.620;2023-03-31T08:58:53;1.20;;;0.70;;
75858;SDS011;64504;51.308;8.620;2023-03-31T09:01:31;0.63;;;0.63;;
75858;SDS011;64504;51.308;8.620;2023-03-31T09:04:15;0.60;;;0.50;;
75858;SDS011;64504;51.308;8.620;2023-03-31T09:07:17;2.47;;;0.93;;
75858;SDS011;64504;51.308;8.620;2023-03-31T09:15:39;1.08;;;0.73;;
75858;SDS011;64504;51.308;8.620;2023-03-31T09:18:15;1.80;;;1.13;;
75858;SDS011;64504;51.308;8.620;2023-03-31T09:20:44;6.50;;;1.27;;
75858;SDS011;64504;51.308;8.620;2023-03-31T09:23:20;1.55;;;1.25;;
75858;SDS011;64504;51.308;8.620;2023-03-31T09:25:49;7.82;;;1.50;;
75858;SDS011;64504;51.308;8.620;2023-03-31T09:28:20;2.00;;;1.83;;
75858;SDS011;64504;51.308;8.620;2023-03-31T09:30:55;1.35;;;0.88;;
75858;SDS011;64504;51.308;8.620;2023-03-31T09:33:24;3.13;;;0.90;;
75858;SDS011;64504;51.308;8.620;2023-03-31T09:35:56;2.40;;;1.35;;
75858;SDS011;64504;51.308;8.620;2023-03-31T09:38:28;2.92;;;1.27;;
75858;SDS011;64504;51.308;8.620;2023-03-31T09:40:58;2.03;;;1.20;;
75858;SDS011;64504;51.308;8.620;2023-03-31T09:43:25;2.97;;;2.25;;
75858;SDS011;64504;51.308;8.620;2023-03-31T09:45:51;5.65;;;1.13;;
75858;SDS011;64504;51.308;8.620;2023-03-31T09:48:18;1.60;;;0.93;;
75858;SDS011;64504;51.308;8.620;2023-03-31T09:50:45;13.82;;;2.63;;
75858;SDS011;64504;51.308;8.620;2023-03-31T09:53:21;6.32;;;2.47;;
75858;SDS011;64504;51.308;8.620;2023-03-31T09:55:53;5.07;;;1.63;;
75858;SDS011;64504;51.308;8.620;2023-03-31T09:58:23;3.55;;;2.08;;
75858;SDS011;64504;51.308;8.620;2023-03-31T10:00:59;5.18;;;1.67;;
75858;SDS011;64504;51.308;8.620;2023-03-31T10:03:26;3.95;;;1.52;;
75858;SDS011;64504;51.308;8.620;2023-03-31T10:05:54;4.97;;;1.95;;
75858;SDS011;64504;51.308;8.620;2023-03-31T10:13:17;3.10;;;1.88;;
75858;SDS011;64504;51.308;8.620;2023-03-31T10:15:45;4.07;;;2.17;;
75858;SDS011;64504;51.308;8.620;2023-03-31T10:18:14;5.03;;;1.85;;
75858;SDS011;64504;51.308;8.620;2023-03-31T10:20:43;1.30;;;1.23;;
75858;SDS011;64504;51.308;8.620;2023-03-31T10:23:22;3.22;;;1.67;;
75858;SDS011;64504;51.308;8.620;2023-03-31T10:25:50;3.78;;;1.60;;
75858;SDS011;64504;51.308;8.620;2023-03-31T10:28:17;2.17;;;1.25;;
75858;SDS011;64504;51.308;8.620;2023-03-31T10:30:56;2.25;;;1.10;;
75858;SDS011;64504;51.308;8.620;2023-03-31T10:33:26;11.52;;;3.08;;
75858;SDS011;64504;51.308;8.620;2023-03-31T10:38:29;2.22;;;1.35;;
75858;SDS011;64504;51.308;8.620;2023-03-31T10:40:57;1.90;;;1.75;;
75858;SDS011;64504;51.308;8.620;2023-03-31T10:43:36;5.20;;;2.00;;
75858;SDS011;64504;51.308;8.620;2023-03-31T10:46:04;1.65;;;1.27;;
75858;SDS011;64504;51.308;8.620;2023-03-31T10:48:31;2.53;;;1.40;;
75858;SDS011;64504;51.308;8.620;2023-03-31T10:51:18;0.88;;;0.88;;
75858;SDS011;64504;51.308;8.620;2023-03-31T10:53:51;1.65;;;1.55;;
75858;SDS011;64504;51.308;8.620;2023-03-31T10:56:35;3.20;;;1.50;;
75858;SDS011;64504;51.308;8.620;2023-03-31T10:59:13;10.70;;;2.45;;
75858;SDS011;64504;51.308;8.620;2023-03-31T11:07:26;2.78;;;1.63;;
75858;SDS011;64504;51.308;8.620;2023-03-31T11:15:33;1.15;;;0.93;;
75858;SDS011;64504;51.308;8.620;2023-03-31T11:29:49;1.70;;;1.60;;
75858;SDS011;64504;51.308;8.620;2023-03-31T11:35:17;8.80;;;1.77;;
75858;SDS011;64504;51.308;8.620;2023-03-31T11:49:03;6.35;;;1.60;;
75858;SDS011;64504;51.308;8.620;2023-03-31T11:52:16;3.25;;;1.50;;
75858;SDS011;64504;51.308;8.620;2023-03-31T11:54:36;3.10;;;1.52;;
75858;SDS011;64504;51.308;8.620;2023-03-31T11:57:12;2.83;;;1.10;;
75858;SDS011;64504;51.308;8.620;2023-03-31T11:59:43;0.75;;;0.75;;
75858;SDS011;64504;51.308;8.620;2023-03-31T12:02:16;3.28;;;1.70;;
75858;SDS011;64504;51.308;8.620;2023-03-31T12:04:53;5.25;;;1.77;;
75858;SDS011;64504;51.308;8.620;2023-03-31T12:07:30;3.13;;;1.38;;
75858;SDS011;64504;51.308;8.620;2023-03-31T12:15:40;3.72;;;1.48;;
75858;SDS011;64504;51.308;8.620;2023-03-31T12:20:52;1.73;;;1.42;;
75858;SDS011;64504;51.308;8.620;2023-03-31T12:23:22;5.07;;;1.67;;
75858;SDS011;64504;51.308;8.620;2023-03-31T12:25:51;6.88;;;1.20;;
75858;SDS011;64504;51.308;8.620;2023-03-31T12:28:32;4.68;;;0.98;;
75858;SDS011;64504;51.308;8.620;2023-03-31T12:31:02;2.70;;;0.82;;
75858;SDS011;64504;51.308;8.620;2023-03-31T12:33:36;4.43;;;1.23;;
75858;SDS011;64504;51.308;8.620;2023-03-31T12:41:31;1.17;;;0.85;;
75858;SDS011;64504;51.308;8.620;2023-03-31T12:47:02;0.88;;;0.88;;
75858;SDS011;64504;51.308;8.620;2023-03-31T12:50:16;2.40;;;1.08;;
75858;SDS011;64504;51.308;8.620;2023-03-31T12:57:47;1.73;;;1.20;;
75858;SDS011;64504;51.308;8.620;2023-03-31T13:02:47;5.95;;;1.25;;
75858;SDS011;64504;51.308;8.620;2023-03-31T13:08:00;3.70;;;1.55;;
75858;SDS011;64504;51.308;8.620;2023-03-31T13:10:27;1.50;;;1.23;;
75858;SDS011;64504;51.308;8.620;2023-03-31T13:13:03;1.27;;;1.17;;
75858;SDS011;64504;51.308;8.620;2023-03-31T13:15:31;2.13;;;1.02;;
75858;SDS011;64504;51.308;8.620;2023-03-31T13:18:04;1.52;;;0.82;;
75858;SDS011;64504;51.308;8.620;2023-03-31T13:20:36;0.40;;;0.40;;
75858;SDS011;64504;51.308;8.620;2023-03-31T13:23:25;2.45;;;1.10;;
75858;SDS011;64504;51.308;8.620;2023-03-31T13:25:53;0.52;;;0.52;;
75858;SDS011;64504;51.308;8.620;2023-03-31T13:31:07;2.05;;;0.95;;
75858;SDS011;64504;51.308;8.620;2023-03-31T13:42:11;1.70;;;1.02;;
75858;SDS011;64504;51.308;8.620;2023-03-31T13:47:52;3.58;;;1.80;;
75858;SDS011;64504;51.308;8.620;2023-03-31T13:50:52;4.63;;;1.17;;
75858;SDS011;64504;51.308;8.620;2023-03-31T13:58:29;4.75;;;0.90;;
75858;SDS011;64504;51.308;8.620;2023-03-31T14:08:46;6.35;;;1.42;;
75858;SDS011;64504;51.308;8.620;2023-03-31T14:11:28;1.50;;;0.98;;
75858;SDS011;64504;51.308;8.620;2023-03-31T14:16:28;5.40;;;1.52;;
75858;SDS011;64504;51.308;8.620;2023-03-31T14:19:40;4.05;;;1.08;;
75858;SDS011;64504;51.308;8.620;2023-03-31T14:27:10;1.58;;;1.48;;
75858;SDS011;64504;51.308;8.620;2023-03-31T14:30:10;2.83;;;1.15;;
75858;SDS011;64504;51.308;8.620;2023-03-31T14:32:44;2.72;;;1.80;;
75858;SDS011;64504;51.308;8.620;2023-03-31T14:37:54;4.43;;;1.05;;
75858;SDS011;64504;51.308;8.620;2023-03-31T14:40:20;0.70;;;0.55;;
75858;SDS011;64504;51.308;8.620;2023-03-31T14:42:46;1.30;;;1.08;;
75858;SDS011;64504;51.308;8.620;2023-03-31T14:45:24;2.42;;;1.25;;
75858;SDS011;64504;51.308;8.620;2023-03-31T14:50:20;6.25;;;1.40;;
75858;SDS011;64504;51.308;8.620;2023-03-31T14:52:50;5.15;;;1.88;;
75858;SDS011;64504;51.308;8.620;2023-03-31T14:55:16;1.95;;;1.10;;
75858;SDS011;64504;51.308;8.620;2023-03-31T14:57:45;9.90;;;1.52;;
75858;SDS011;64504;51.308;8.620;2023-03-31T15:00:13;6.15;;;1.73;;
75858;SDS011;64504;51.308;8.620;2023-03-31T15:02:40;6.90;;;1.48;;
75858;SDS011;64504;51.308;8.620;2023-03-31T15:05:07;3.72;;;1.90;;
75858;SDS011;64504;51.308;8.620;2023-03-31T15:07:34;4.10;;;1.10;;
75858;SDS011;64504;51.308;8.620;2023-03-31T15:10:02;7.88;;;2.13;;
75858;SDS011;64504;51.308;8.620;2023-03-31T15:12:30;5.47;;;1.95;;
75858;SDS011;64504;51.308;8.620;2023-03-31T15:14:56;2.63;;;0.63;;
75858;SDS011;64504;51.308;8.620;2023-03-31T15:17:30;2.47;;;1.40;;
75858;SDS011;64504;51.308;8.620;2023-03-31T15:22:45;3.75;;;1.10;;
75858;SDS011;64504;51.308;8.620;2023-03-31T15:25:16;1.15;;;0.63;;
75858;SDS011;64504;51.308;8.620;2023-03-31T15:27:51;3.72;;;1.48;;
75858;SDS011;64504;51.308;8.620;2023-03-31T15:30:20;4.15;;;1.13;;
75858;SDS011;64504;51.308;8.620;2023-03-31T15:32:48;1.02;;;0.65;;
75858;SDS011;64504;51.308;8.620;2023-03-31T15:35:28;1.20;;;0.73;;
75858;SDS011;64504;51.308;8.620;2023-03-31T15:37:56;1.60;;;1.13;;
75858;SDS011;64504;51.308;8.620;2023-03-31T15:42:53;1.42;;;1.23;;
75858;SDS011;64504;51.308;8.620;2023-03-31T15:48:24;0.93;;;0.82;;
75858;SDS011;64504;51.308;8.620;2023-03-31T15:54:09;2.80;;;1.35;;
75858;SDS011;64504;51.308;8.620;2023-03-31T15:56:09;3.30;;;1.58;;
75858;SDS011;64504;51.308;8.620;2023-03-31T15:58:57;8.18;;;1.45;;
75858;SDS011;64504;51.308;8.620;2023-03-31T16:03:56;5.32;;;1.23;;
75858;SDS011;64504;51.308;8.620;2023-03-31T16:06:33;5.70;;;2.40;;
75858;SDS011;64504;51.308;8.620;2023-03-31T16:09:15;6.25;;;2.25;;
75858;SDS011;64504;51.308;8.620;2023-03-31T16:11:47;2.33;;;1.35;;
75858;SDS011;64504;51.308;8.620;2023-03-31T16:14:25;2.38;;;1.38;;
75858;SDS011;64504;51.308;8.620;2023-03-31T16:16:58;3.60;;;2.20;;
75858;SDS011;64504;51.308;8.620;2023-03-31T16:19:27;11.80;;;2.65;;
75858;SDS011;64504;51.308;8.620;2023-03-31T16:21:56;1.52;;;1.05;;
75858;SDS011;64504;51.308;8.620;2023-03-31T16:24:27;9.40;;;2.92;;
75858;SDS011;64504;51.308;8.620;2023-03-31T16:27:01;5.25;;;1.25;;
75858;SDS011;64504;51.308;8.620;2023-03-31T16:29:31;2.28;;;1.27;;
75858;SDS011;64504;51.308;8.620;2023-03-31T16:35:00;3.42;;;1.83;;
75858;SDS011;64504;51.308;8.620;2023-03-31T16:37:27;1.65;;;1.55;;
75858;SDS011;64504;51.308;8.620;2023-03-31T16:39:52;2.83;;;1.55;;
75858;SDS011;64504;51.308;8.620;2023-03-31T16:42:18;4.93;;;1.75;;
75858;SDS011;64504;51.308;8.620;2023-03-31T16:44:44;3.97;;;1.08;;
75858;SDS011;64504;51.308;8.620;2023-03-31T16:47:11;1.67;;;1.20;;
75858;SDS011;64504;51.308;8.620;2023-03-31T16:49:37;10.00;;;1.60;;
75858;SDS011;64504;51.308;8.620;2023-03-31T16:52:02;3.08;;;1.30;;
75858;SDS011;64504;51.308;8.620;2023-03-31T16:54:29;7.43;;;1.70;;
75858;SDS011;64504;51.308;8.620;2023-03-31T16:56:56;0.60;;;0.60;;
75858;SDS011;64504;51.308;8.620;2023-03-31T16:59:21;2.67;;;1.55;;
75858;SDS011;64504;51.308;8.620;2023-03-31T17:01:47;1.00;;;0.90;;
75858;SDS011;64504;51.308;8.620;2023-03-31T17:04:13;3.42;;;0.75;;
75858;SDS011;64504;51.308;8.620;2023-03-31T17:06:38;1.70;;;1.13;;
75858;SDS011;64504;51.308;8.620;2023-03-31T17:09:04;6.00;;;1.77;;
75858;SDS011;64504;51.308;8.620;2023-03-31T17:11:29;1.83;;;1.70;;
75858;SDS011;64504;51.308;8.620;2023-03-31T17:13:55;1.88;;;1.30;;
75858;SDS011;64504;51.308;8.620;2023-03-31T17:16:22;4.15;;;1.92;;
75858;SDS011;64504;51.308;8.620;2023-03-31T17:18:47;1.08;;;0.98;;
75858;SDS011;64504;51.308;8.620;2023-03-31T17:21:14;4.78;;;2.25;;
75858;SDS011;64504;51.308;8.620;2023-03-31T17:23:41;2.45;;;1.60;;
75858;SDS011;64504;51.308;8.620;2023-03-31T17:26:08;2.45;;;1.77;;
75858;SDS011;64504;51.308;8.620;2023-03-31T17:28:34;3.58;;;2.20;;
75858;SDS011;64504;51.308;8.620;2023-03-31T17:31:00;3.78;;;1.55;;
75858;SDS011;64504;51.308;8.620;2023-03-31T17:33:25;3.75;;;1.35;;
75858;SDS011;64504;51.308;8.620;2023-03-31T17:35:56;3.78;;;1.00;;
75858;SDS011;64504;51.308;8.620;2023-03-31T17:38:23;4.95;;;1.83;;
75858;SDS011;64504;51.308;8.620;2023-03-31T17:40:49;1.75;;;1.52;;
75858;SDS011;64504;51.308;8.620;2023-03-31T17:43:14;2.22;;;1.38;;
75858;SDS011;64504;51.308;8.620;2023-03-31T17:45:40;5.70;;;1.38;;
75858;SDS011;64504;51.308;8.620;2023-03-31T17:48:06;2.33;;;1.60;;
75858;SDS011;64504;51.308;8.620;2023-03-31T17:50:33;2.22;;;1.00;;
75858;SDS011;64504;51.308;8.620;2023-03-31T17:52:59;1.00;;;0.88;;
75858;SDS011;64504;51.308;8.620;2023-03-31T17:55:25;1.85;;;1.63;;
75858;SDS011;64504;51.308;8.620;2023-03-31T17:57:51;2.70;;;2.03;;
75858;SDS011;64504;51.308;8.620;2023-03-31T18:00:16;5.53;;;1.38;;
75858;SDS011;64504;51.308;8.620;2023-03-31T18:02:43;2.38;;;1.17;;
75858;SDS011;64504;51.308;8.620;2023-03-31T18:05:09;3.90;;;1.63;;
75858;SDS011;64504;51.308;8.620;2023-03-31T18:07:36;3.45;;;1.95;;
75858;SDS011;64504;51.308;8.620;2023-03-31T18:10:02;2.63;;;1.20;;